createdAt,value
2022-12-24T00:00:05.843Z,90.84
2022-12-24T00:01:05.820Z,91.15
2022-12-24T00:02:05.910Z,90.53
2022-12-24T00:03:05.887Z,90.33
2022-12-24T00:04:05.761Z,90.53
2022-12-24T00:05:05.756Z,90.43
2022-12-24T00:06:05.776Z,90.53
2022-12-24T00:07:05.747Z,90.53
2022-12-24T00:08:05.755Z,90.64
2022-12-24T00:09:05.686Z,90.84
2022-12-24T00:10:05.695Z,90.99
2022-12-24T00:11:05.694Z,90.99
2022-12-24T00:12:05.679Z,91.19
2022-12-24T00:13:05.642Z,91.39
2022-12-24T00:14:05.627Z,91.50
2022-12-24T00:15:05.616Z,91.70
2022-12-24T00:16:05.624Z,91.60
2022-12-24T00:17:05.644Z,91.70
2022-12-24T00:18:05.608Z,91.80
2022-12-24T00:19:05.558Z,92.01
2022-12-24T00:20:05.537Z,92.01
2022-12-24T00:21:05.572Z,91.80
2022-12-24T00:22:05.545Z,92.01
2022-12-24T00:23:05.498Z,91.70
2022-12-24T00:24:05.492Z,91.91
2022-12-24T00:25:05.479Z,91.91
2022-12-24T00:26:05.483Z,91.50
2022-12-24T00:27:05.475Z,91.60
2022-12-24T00:28:05.430Z,91.70
2022-12-24T00:29:05.429Z,91.70
2022-12-24T00:30:05.419Z,91.91
2022-12-24T00:31:05.492Z,91.80
2022-12-24T00:32:05.409Z,91.70
2022-12-24T00:33:05.390Z,91.80
2022-12-24T00:34:05.362Z,91.70
2022-12-24T00:35:05.391Z,91.91
2022-12-24T00:36:05.331Z,91.91
2022-12-24T00:37:05.323Z,91.91
2022-12-24T00:38:05.311Z,91.91
2022-12-24T00:39:05.343Z,91.70
2022-12-24T00:40:05.288Z,91.80
2022-12-24T00:41:05.282Z,91.50
2022-12-24T00:42:05.255Z,91.50
2022-12-24T00:43:05.274Z,91.09
2022-12-24T00:44:05.253Z,90.58
2022-12-24T00:45:05.278Z,90.78
2022-12-24T00:46:05.258Z,90.88
2022-12-24T00:47:11.665Z,90.88
2022-12-24T00:48:06.174Z,90.78
2022-12-24T00:49:05.184Z,90.78
2022-12-24T00:50:05.184Z,90.37
2022-12-24T00:51:05.228Z,90.68
2022-12-24T00:52:05.141Z,90.88
2022-12-24T00:53:05.125Z,90.99
2022-12-24T00:54:05.122Z,90.88
2022-12-24T00:55:05.087Z,90.58
2022-12-24T00:56:05.097Z,89.97
2022-12-24T00:57:05.064Z,89.65
2022-12-24T00:58:05.054Z,89.86
2022-12-24T00:59:05.045Z,90.27
2022-12-24T01:00:05.026Z,89.97
2022-12-24T01:01:05.111Z,89.97
2022-12-24T01:02:05.114Z,89.97
2022-12-24T01:03:05.032Z,89.15
2022-12-24T01:04:04.993Z,89.25
2022-12-24T01:05:04.975Z,89.04
2022-12-24T01:06:04.944Z,88.74
2022-12-24T01:07:04.951Z,88.43
2022-12-24T01:08:04.914Z,88.33
2022-12-24T01:09:04.955Z,88.33
2022-12-24T01:10:04.896Z,88.74
2022-12-24T01:11:04.900Z,88.33
2022-12-24T01:12:04.866Z,87.92
2022-12-24T01:13:04.882Z,87.61
2022-12-24T01:14:04.854Z,87.41
2022-12-24T01:15:04.852Z,87.41
2022-12-24T01:16:04.851Z,87.30
2022-12-24T01:17:04.796Z,87.51
2022-12-24T01:18:04.806Z,87.71
2022-12-24T01:19:04.805Z,87.61
2022-12-24T01:20:04.762Z,87.71
2022-12-24T01:21:04.747Z,87.51
2022-12-24T01:22:04.743Z,87.61
2022-12-24T01:23:04.731Z,88.26
2022-12-24T01:24:04.708Z,87.85
2022-12-24T01:25:04.789Z,88.26
2022-12-24T01:26:04.683Z,88.06
2022-12-24T01:27:04.658Z,87.85
2022-12-24T01:28:04.680Z,87.35
2022-12-24T01:29:04.646Z,87.76
2022-12-24T01:30:04.652Z,87.45
2022-12-24T01:31:04.650Z,87.55
2022-12-24T01:32:04.603Z,87.85
2022-12-24T01:33:04.619Z,88.06
2022-12-24T01:34:04.592Z,87.96
2022-12-24T01:35:14.276Z,88.26
2022-12-24T01:36:12.069Z,88.26
2022-12-24T01:37:04.525Z,88.37
2022-12-24T01:38:12.029Z,88.10
2022-12-24T01:39:12.013Z,87.38
2022-12-24T01:40:04.495Z,87.38
2022-12-24T01:41:11.997Z,87.18
2022-12-24T01:42:12.000Z,86.98
2022-12-24T01:43:04.469Z,87.49
2022-12-24T01:44:11.972Z,87.18
2022-12-24T01:45:13.655Z,87.08
2022-12-24T01:46:04.499Z,86.98
2022-12-24T01:47:04.397Z,86.77
2022-12-24T01:48:04.395Z,86.16
2022-12-24T01:49:04.383Z,86.16
2022-12-24T01:50:04.385Z,86.46
2022-12-24T01:51:04.371Z,86.67
2022-12-24T01:52:04.334Z,86.36
2022-12-24T01:53:04.329Z,86.36
2022-12-24T01:54:04.342Z,86.36
2022-12-24T01:55:04.321Z,86.67
2022-12-24T01:56:04.308Z,86.77
2022-12-24T01:57:04.276Z,87.08
2022-12-24T01:58:04.279Z,87.43
2022-12-24T01:59:04.240Z,87.02
2022-12-24T02:00:04.260Z,86.61
2022-12-24T02:01:04.268Z,86.61
2022-12-24T02:02:04.277Z,86.81
2022-12-24T02:03:04.370Z,87.02
2022-12-24T02:04:04.215Z,86.91
2022-12-24T02:05:04.190Z,87.12
2022-12-24T02:06:04.189Z,87.22
2022-12-24T02:07:04.147Z,86.91
2022-12-24T02:08:04.152Z,86.91
2022-12-24T02:09:04.124Z,87.32
2022-12-24T02:10:04.119Z,87.12
2022-12-24T02:11:04.100Z,87.22
2022-12-24T02:12:04.092Z,87.32
2022-12-24T02:13:04.080Z,86.71
2022-12-24T02:14:04.061Z,86.71
2022-12-24T02:15:04.071Z,87.32
2022-12-24T02:16:04.110Z,86.81
2022-12-24T02:17:04.014Z,86.81
2022-12-24T02:18:04.028Z,87.22
2022-12-24T02:19:03.990Z,86.71
2022-12-24T02:20:04.003Z,86.61
2022-12-24T02:21:03.984Z,86.61
2022-12-24T02:22:03.993Z,86.40
2022-12-24T02:23:03.941Z,86.61
2022-12-24T02:24:03.943Z,86.81
2022-12-24T02:25:03.933Z,86.71
2022-12-24T02:26:03.901Z,86.20
2022-12-24T02:27:03.884Z,86.20
2022-12-24T02:28:03.873Z,86.61
2022-12-24T02:29:03.859Z,85.89
2022-12-24T02:30:03.893Z,86.10
2022-12-24T02:31:03.895Z,85.89
2022-12-24T02:32:03.826Z,85.64
2022-12-24T02:33:03.847Z,85.85
2022-12-24T02:34:03.827Z,85.44
2022-12-24T02:35:03.799Z,86.05
2022-12-24T02:36:03.783Z,85.79
2022-12-24T02:37:03.747Z,85.64
2022-12-24T02:38:03.755Z,85.64
2022-12-24T02:39:03.734Z,86.16
2022-12-24T02:40:03.736Z,86.05
2022-12-24T02:41:03.741Z,85.85
2022-12-24T02:42:03.716Z,85.75
2022-12-24T02:43:03.682Z,85.64
2022-12-24T02:44:03.664Z,85.64
2022-12-24T02:45:03.652Z,85.34
2022-12-24T02:46:03.673Z,85.55
2022-12-24T02:47:03.685Z,85.55
2022-12-24T02:48:03.605Z,85.24
2022-12-24T02:49:03.620Z,85.34
2022-12-24T02:50:03.583Z,85.55
2022-12-24T02:51:03.606Z,85.44
2022-12-24T02:52:03.576Z,85.64
2022-12-24T02:53:03.556Z,85.44
2022-12-24T02:54:03.524Z,85.75
2022-12-24T02:55:03.530Z,86.16
2022-12-24T02:56:03.545Z,86.26
2022-12-24T02:57:03.497Z,86.20
2022-12-24T02:58:03.517Z,86.10
2022-12-24T02:59:03.470Z,86.20
2022-12-24T03:00:03.463Z,86.30
2022-12-24T03:01:03.580Z,86.61
2022-12-24T03:02:03.533Z,86.71
2022-12-24T03:03:03.612Z,86.71
2022-12-24T03:04:03.445Z,86.71
2022-12-24T03:05:03.401Z,86.81
2022-12-24T03:06:03.396Z,86.51
2022-12-24T03:07:03.380Z,86.61
2022-12-24T03:08:03.368Z,86.91
2022-12-24T03:09:03.352Z,86.91
2022-12-24T03:10:03.332Z,87.12
2022-12-24T03:11:03.328Z,87.32
2022-12-24T03:12:03.306Z,87.77
2022-12-24T03:13:03.303Z,87.67
2022-12-24T03:14:03.316Z,87.98
2022-12-24T03:15:03.269Z,88.18
2022-12-24T03:16:03.286Z,88.18
2022-12-24T03:17:03.282Z,88.29
2022-12-24T03:18:03.281Z,88.39
2022-12-24T03:19:03.237Z,88.59
2022-12-24T03:20:03.253Z,88.80
2022-12-24T03:21:03.211Z,88.80
2022-12-24T03:22:03.186Z,89.00
2022-12-24T03:23:03.206Z,89.31
2022-12-24T03:24:03.181Z,89.36
2022-12-24T03:25:03.150Z,89.45
2022-12-24T03:26:03.135Z,89.45
2022-12-24T03:27:03.106Z,89.36
2022-12-24T03:28:03.099Z,89.45
2022-12-24T03:29:03.078Z,89.76
2022-12-24T03:30:03.097Z,89.66
2022-12-24T03:31:03.139Z,89.97
2022-12-24T03:32:03.106Z,89.87
2022-12-24T03:33:03.052Z,89.87
2022-12-24T03:34:03.066Z,89.97
2022-12-24T03:35:03.021Z,90.17
2022-12-24T03:36:03.009Z,90.48
2022-12-24T03:37:03.002Z,90.58
2022-12-24T03:38:02.988Z,90.69
2022-12-24T03:39:02.986Z,90.83
2022-12-24T03:40:03.049Z,90.93
2022-12-24T03:41:02.954Z,90.89
2022-12-24T03:42:02.912Z,90.79
2022-12-24T03:43:02.902Z,90.79
2022-12-24T03:44:02.928Z,90.99
2022-12-24T03:45:02.913Z,91.09
2022-12-24T03:46:02.962Z,91.35
2022-12-24T03:47:02.877Z,91.44
2022-12-24T03:48:02.834Z,91.55
2022-12-24T03:49:02.845Z,91.55
2022-12-24T03:50:02.843Z,91.65
2022-12-24T04:03:17.564Z,92.47
2022-12-24T04:04:17.467Z,92.57
2022-12-24T04:05:17.467Z,92.47
2022-12-24T04:06:17.443Z,92.51
2022-12-24T04:07:17.428Z,92.51
2022-12-24T04:08:17.415Z,92.51
2022-12-24T04:09:17.424Z,92.51
2022-12-24T04:10:17.407Z,92.41
2022-12-24T04:11:17.391Z,92.41
2022-12-24T04:12:17.392Z,92.41
2022-12-24T04:13:17.359Z,92.31
2022-12-24T04:14:17.351Z,92.31
2022-12-24T04:15:17.348Z,92.31
2022-12-24T04:16:17.419Z,92.21
2022-12-24T04:17:24.872Z,92.21
2022-12-24T04:18:17.286Z,92.41
2022-12-24T04:19:17.274Z,92.41
2022-12-24T04:20:17.283Z,92.51
2022-12-24T04:21:17.257Z,92.51
2022-12-24T04:22:17.247Z,92.41
2022-12-24T04:23:17.235Z,92.41
2022-12-24T04:24:17.213Z,92.21
2022-12-24T04:25:17.223Z,92.10
2022-12-24T04:26:17.190Z,92.10
2022-12-24T04:27:17.180Z,92.00
2022-12-24T04:28:17.161Z,92.10
2022-12-24T04:29:17.163Z,92.10
2022-12-24T04:30:17.158Z,91.90
2022-12-24T04:31:17.138Z,91.69
2022-12-24T04:32:17.224Z,91.80
2022-12-24T04:33:17.116Z,91.90
2022-12-24T04:34:17.072Z,91.59
2022-12-24T04:35:17.082Z,91.59
2022-12-24T04:36:17.203Z,91.80
2022-12-24T04:37:17.041Z,91.69
2022-12-24T04:38:17.072Z,91.80
2022-12-24T04:39:17.031Z,91.38
2022-12-24T04:40:17.007Z,91.08
2022-12-24T04:41:23.227Z,91.28
2022-12-24T04:42:17.964Z,91.28
2022-12-24T04:43:17.010Z,91.18
2022-12-24T04:44:16.979Z,91.08
2022-12-24T04:45:16.994Z,90.77
2022-12-24T04:46:17.046Z,90.26
2022-12-24T04:47:16.951Z,90.05
2022-12-24T04:48:16.928Z,90.05
2022-12-24T04:49:16.890Z,89.43
2022-12-24T04:50:16.870Z,89.29
2022-12-24T04:51:16.890Z,89.19
2022-12-24T04:52:16.831Z,89.39
2022-12-24T04:53:16.844Z,89.39
2022-12-24T04:54:16.801Z,89.13
2022-12-24T04:55:16.831Z,89.29
2022-12-24T04:56:16.795Z,89.33
2022-12-24T04:57:16.787Z,89.13
2022-12-24T04:58:16.756Z,89.23
2022-12-24T04:59:16.762Z,88.82
2022-12-24T05:00:16.752Z,88.27
2022-12-24T05:01:16.822Z,88.37
2022-12-24T05:02:16.819Z,88.78
2022-12-24T05:03:16.757Z,88.68
2022-12-24T05:04:16.671Z,88.57
2022-12-24T05:05:16.673Z,88.37
2022-12-24T05:06:16.662Z,88.51
2022-12-24T05:07:16.635Z,88.62
2022-12-24T05:08:16.630Z,88.72
2022-12-24T05:09:16.636Z,89.03
2022-12-24T05:10:16.636Z,88.51
2022-12-24T05:11:16.585Z,88.51
2022-12-24T05:12:16.679Z,88.92
2022-12-24T05:13:16.572Z,88.62
2022-12-24T05:14:16.549Z,88.62
2022-12-24T05:15:16.553Z,88.72
2022-12-24T05:16:16.569Z,88.92
2022-12-24T05:17:16.603Z,88.78
2022-12-24T05:18:16.502Z,88.88
2022-12-24T05:19:16.501Z,88.88
2022-12-24T05:20:16.498Z,88.98
2022-12-24T05:21:16.464Z,88.78
2022-12-24T05:22:16.469Z,88.88
2022-12-24T05:23:16.433Z,89.09
2022-12-24T05:24:16.416Z,88.88
2022-12-24T05:25:16.457Z,89.09
2022-12-24T05:26:16.394Z,88.88
2022-12-24T05:27:16.387Z,89.19
2022-12-24T05:28:16.396Z,89.39
2022-12-24T05:29:16.361Z,89.29
2022-12-24T05:30:16.340Z,89.50
2022-12-24T05:31:16.422Z,89.70
2022-12-24T05:32:16.334Z,89.64
2022-12-24T05:33:16.307Z,89.84
2022-12-24T05:34:16.312Z,89.54
2022-12-24T05:35:16.295Z,89.64
2022-12-24T05:36:16.288Z,89.84
2022-12-24T05:37:16.248Z,90.05
2022-12-24T05:38:16.238Z,89.95
2022-12-24T05:39:16.445Z,90.05
2022-12-24T05:40:16.222Z,89.95
2022-12-24T05:41:16.216Z,90.26
2022-12-24T05:42:16.184Z,90.36
2022-12-24T05:43:16.179Z,90.36
2022-12-24T05:44:16.349Z,90.26
2022-12-24T05:45:16.155Z,90.46
2022-12-24T05:46:16.186Z,90.46
2022-12-24T05:47:16.122Z,90.36
2022-12-24T05:48:16.098Z,90.46
2022-12-24T05:49:16.130Z,90.67
2022-12-24T05:50:16.097Z,90.56
2022-12-24T05:51:16.065Z,90.67
2022-12-24T05:52:16.061Z,90.56
2022-12-24T05:53:16.051Z,90.67
2022-12-24T05:54:16.031Z,90.67
2022-12-24T05:55:16.020Z,90.87
2022-12-24T05:56:16.038Z,90.87
2022-12-24T05:57:15.997Z,90.77
2022-12-24T05:58:16.011Z,90.87
2022-12-24T05:59:15.970Z,90.87
2022-12-24T06:00:15.966Z,90.87
2022-12-24T06:01:16.029Z,90.97
2022-12-24T06:02:16.002Z,91.08
2022-12-24T06:03:15.920Z,91.18
2022-12-24T06:04:16.064Z,91.18
2022-12-24T06:05:15.877Z,91.18
2022-12-24T06:06:15.906Z,91.18
2022-12-24T06:07:15.910Z,91.28
2022-12-24T06:08:15.869Z,91.38
2022-12-24T06:09:15.829Z,91.38
2022-12-24T06:10:15.820Z,91.49
2022-12-24T06:11:15.826Z,91.49
2022-12-24T06:12:15.816Z,91.49
2022-12-24T06:13:15.800Z,91.49
2022-12-24T06:14:15.802Z,91.38
2022-12-24T06:15:21.933Z,91.49
2022-12-24T06:16:16.871Z,91.49
2022-12-24T06:17:15.723Z,91.59
2022-12-24T06:18:15.723Z,91.59
2022-12-24T06:19:15.707Z,91.59
2022-12-24T06:20:15.721Z,91.59
2022-12-24T06:21:15.695Z,91.59
2022-12-24T06:22:15.671Z,91.49
2022-12-24T06:23:15.643Z,91.59
2022-12-24T06:24:15.652Z,91.80
2022-12-24T06:25:15.656Z,91.69
2022-12-24T06:26:15.643Z,91.59
2022-12-24T06:27:15.604Z,91.59
2022-12-24T06:28:15.580Z,91.69
2022-12-24T06:29:15.574Z,91.80
2022-12-24T06:30:18.364Z,91.69
2022-12-24T06:31:15.603Z,91.69
2022-12-24T06:32:15.545Z,91.59
2022-12-24T06:33:15.516Z,91.59
2022-12-24T06:34:15.532Z,91.59
2022-12-24T06:35:15.501Z,91.59
2022-12-24T06:36:17.664Z,91.69
2022-12-24T06:37:15.464Z,91.80
2022-12-24T06:38:15.470Z,91.69
2022-12-24T06:39:15.465Z,91.69
2022-12-24T06:40:15.433Z,91.80
2022-12-24T06:41:15.434Z,91.59
2022-12-24T06:42:15.408Z,91.69
2022-12-24T06:43:15.397Z,91.80
2022-12-24T06:44:15.396Z,91.69
2022-12-24T06:45:15.384Z,91.69
2022-12-24T06:46:15.404Z,91.80
2022-12-24T06:47:15.354Z,91.69
2022-12-24T06:48:15.329Z,91.59
2022-12-24T06:49:15.331Z,91.59
2022-12-24T06:50:15.304Z,91.49
2022-12-24T06:51:15.302Z,91.59
2022-12-24T06:52:15.276Z,91.69
2022-12-24T06:53:15.250Z,91.69
2022-12-24T06:54:15.252Z,91.59
2022-12-24T06:55:15.238Z,91.49
2022-12-24T06:56:15.282Z,91.59
2022-12-24T06:57:15.197Z,91.59
2022-12-24T06:58:15.192Z,91.80
2022-12-24T06:59:15.186Z,92.00
2022-12-24T07:00:15.252Z,92.21
2022-12-24T07:01:15.355Z,92.51
2022-12-24T07:02:15.278Z,92.61
2022-12-24T07:03:15.183Z,93.02
2022-12-24T07:04:20.057Z,93.23
2022-12-24T07:05:16.089Z,93.02
2022-12-24T07:06:15.098Z,93.33
2022-12-24T07:07:15.059Z,93.54
2022-12-24T07:08:15.093Z,93.64
2022-12-24T07:09:15.036Z,93.74
2022-12-24T07:10:15.029Z,93.85
2022-12-24T07:11:15.027Z,93.95
2022-12-24T07:12:15.001Z,94.15
2022-12-24T07:13:14.989Z,94.26
2022-12-24T07:14:14.988Z,94.36
2022-12-24T07:15:14.976Z,94.36
2022-12-24T07:16:15.139Z,94.30
2022-12-24T07:17:15.099Z,94.61
2022-12-24T07:18:14.930Z,94.71
2022-12-24T07:19:15.450Z,94.92
2022-12-24T07:20:15.090Z,95.12
2022-12-24T07:21:14.909Z,95.32
2022-12-24T07:22:15.849Z,95.43
2022-12-24T07:23:14.852Z,95.43
2022-12-24T07:24:14.859Z,95.53
2022-12-24T07:25:14.851Z,95.64
2022-12-24T07:26:14.829Z,95.84
2022-12-24T07:27:14.789Z,95.94
2022-12-24T07:28:14.803Z,95.94
2022-12-24T07:29:14.795Z,96.04
2022-12-24T07:30:14.787Z,96.15
2022-12-24T07:31:14.816Z,96.25
2022-12-24T07:32:14.749Z,96.25
2022-12-24T07:33:14.736Z,96.35
2022-12-24T07:34:14.740Z,96.40
2022-12-24T07:35:14.715Z,96.50
2022-12-24T07:36:14.725Z,96.40
2022-12-24T07:37:14.716Z,96.40
2022-12-24T07:38:14.666Z,96.40
2022-12-24T07:39:14.662Z,96.50
2022-12-24T07:40:14.649Z,96.50
2022-12-24T07:41:14.660Z,96.50
2022-12-24T07:42:14.619Z,96.40
2022-12-24T07:43:14.594Z,96.40
2022-12-24T07:44:14.617Z,96.40
2022-12-24T07:45:14.572Z,96.50
2022-12-24T07:46:14.628Z,96.50
2022-12-24T07:47:14.549Z,96.60
2022-12-24T07:48:14.536Z,96.70
2022-12-24T07:49:14.534Z,96.60
2022-12-24T07:50:14.540Z,96.60
2022-12-24T07:51:14.512Z,96.70
2022-12-24T07:52:14.513Z,96.70
2022-12-24T07:53:14.496Z,96.70
2022-12-24T07:54:14.470Z,96.60
2022-12-24T07:55:14.470Z,96.60
2022-12-24T07:56:14.442Z,96.60
2022-12-24T07:57:14.420Z,96.60
2022-12-24T07:58:14.413Z,96.60
2022-12-24T07:59:14.404Z,96.50
2022-12-24T08:00:14.383Z,96.30
2022-12-24T08:01:14.413Z,96.19
2022-12-24T08:02:18.503Z,96.09
2022-12-24T08:03:14.438Z,96.09
2022-12-24T08:04:14.328Z,96.09
2022-12-24T08:05:14.329Z,95.98
2022-12-24T08:06:14.334Z,95.98
2022-12-24T08:07:14.279Z,95.98
2022-12-24T08:08:14.300Z,95.89
2022-12-24T08:09:14.316Z,95.78
2022-12-24T08:10:14.248Z,95.78
2022-12-24T08:11:14.254Z,95.53
2022-12-24T08:12:14.226Z,95.53
2022-12-24T08:13:14.238Z,95.53
2022-12-24T08:14:14.197Z,95.64
2022-12-24T08:15:14.187Z,95.64
2022-12-24T08:16:14.260Z,95.49
2022-12-24T08:17:14.186Z,95.49
2022-12-24T08:18:14.136Z,95.39
2022-12-24T08:19:14.134Z,95.18
2022-12-24T08:20:14.140Z,94.98
2022-12-24T08:21:14.119Z,95.07
2022-12-24T08:22:14.127Z,95.07
2022-12-24T08:23:14.082Z,95.07
2022-12-24T08:24:14.083Z,95.18
2022-12-24T08:25:14.081Z,95.18
2022-12-24T08:26:14.076Z,94.77
2022-12-24T08:27:14.072Z,94.67
2022-12-24T08:28:13.998Z,94.67
2022-12-24T08:29:13.998Z,94.46
2022-12-24T08:30:20.637Z,94.36
2022-12-24T08:31:15.039Z,94.15
2022-12-24T08:32:14.004Z,94.32
2022-12-24T08:33:13.943Z,94.32
2022-12-24T08:34:13.932Z,94.11
2022-12-24T08:35:13.938Z,94.11
2022-12-24T08:36:13.948Z,94.21
2022-12-24T08:37:13.920Z,94.11
2022-12-24T08:38:13.868Z,94.21
2022-12-24T08:39:13.868Z,94.01
2022-12-24T08:40:13.859Z,94.01
2022-12-24T08:41:13.878Z,94.11
2022-12-24T08:42:13.874Z,94.11
2022-12-24T08:43:13.806Z,94.32
2022-12-24T08:44:13.801Z,94.32
2022-12-24T08:45:13.822Z,94.11
2022-12-24T08:46:13.881Z,94.11
2022-12-24T08:47:13.770Z,94.01
2022-12-24T08:48:13.781Z,94.21
2022-12-24T08:49:13.741Z,94.01
2022-12-24T08:50:13.762Z,94.01
2022-12-24T08:51:13.712Z,93.80
2022-12-24T08:52:13.709Z,93.70
2022-12-24T08:53:13.719Z,93.70
2022-12-24T08:54:13.680Z,93.70
2022-12-24T08:55:13.652Z,93.80
2022-12-24T08:56:13.649Z,93.90
2022-12-24T08:57:13.647Z,94.01
2022-12-24T08:58:13.632Z,93.80
2022-12-24T08:59:13.607Z,93.49
2022-12-24T09:00:13.598Z,93.60
2022-12-24T09:01:13.619Z,93.70
2022-12-24T09:02:13.714Z,93.49
2022-12-24T09:03:14.402Z,93.39
2022-12-24T09:04:13.544Z,93.39
2022-12-24T09:05:13.520Z,93.60
2022-12-24T09:06:13.524Z,93.29
2022-12-24T09:07:13.506Z,93.19
2022-12-24T09:08:13.505Z,93.19
2022-12-24T09:09:13.484Z,93.39
2022-12-24T09:10:13.472Z,93.29
2022-12-24T09:11:13.491Z,93.19
2022-12-24T09:12:13.462Z,93.29
2022-12-24T09:13:13.434Z,93.19
2022-12-24T09:14:13.415Z,92.88
2022-12-24T09:15:13.404Z,92.74
2022-12-24T09:16:13.447Z,92.53
2022-12-24T09:17:13.389Z,92.63
2022-12-24T09:18:13.380Z,92.63
2022-12-24T09:19:13.334Z,92.74
2022-12-24T09:20:13.326Z,92.74
2022-12-24T09:21:13.339Z,92.74
2022-12-24T09:22:13.310Z,92.74
2022-12-24T09:23:13.299Z,92.63
2022-12-24T09:24:13.283Z,92.63
2022-12-24T09:25:13.267Z,92.83
2022-12-24T09:26:13.279Z,92.74
2022-12-24T09:27:13.237Z,92.83
2022-12-24T09:28:13.230Z,92.43
2022-12-24T09:29:13.217Z,92.02
2022-12-24T09:30:13.204Z,92.22
2022-12-24T09:31:13.271Z,91.97
2022-12-24T09:32:13.332Z,92.08
2022-12-24T09:33:13.148Z,91.87
2022-12-24T09:34:13.156Z,92.08
2022-12-24T09:35:13.148Z,91.77
2022-12-24T09:36:13.167Z,91.77
2022-12-24T09:37:13.135Z,91.77
2022-12-24T09:38:13.127Z,91.56
2022-12-24T09:39:13.111Z,91.36
2022-12-24T09:40:13.065Z,91.46
2022-12-24T09:41:13.075Z,91.05
2022-12-24T09:42:13.050Z,90.91
2022-12-24T09:43:13.032Z,90.60
2022-12-24T09:44:13.017Z,90.50
2022-12-24T09:45:12.998Z,90.81
2022-12-24T09:46:13.059Z,90.81
2022-12-24T09:47:12.972Z,90.60
2022-12-24T10:03:48.380Z,90.75
2022-12-24T10:04:48.286Z,90.75
2022-12-24T10:05:48.266Z,90.95
2022-12-24T10:06:48.271Z,90.75
2022-12-24T10:07:48.224Z,90.75
2022-12-24T10:08:48.218Z,90.84
2022-12-24T10:09:48.225Z,90.95
2022-12-24T10:10:48.223Z,90.54
2022-12-24T10:11:48.174Z,89.83
2022-12-24T10:12:49.968Z,89.83
2022-12-24T10:13:48.146Z,90.03
2022-12-24T10:14:48.154Z,90.34
2022-12-24T10:15:48.140Z,89.92
2022-12-24T10:16:48.183Z,89.92
2022-12-24T10:17:48.134Z,89.42
2022-12-24T10:18:49.640Z,89.47
2022-12-24T10:19:48.086Z,89.58
2022-12-24T10:20:48.074Z,89.17
2022-12-24T10:21:48.068Z,88.45
2022-12-24T10:22:48.038Z,88.96
2022-12-24T10:23:48.007Z,88.65
2022-12-24T10:24:50.649Z,88.24
2022-12-24T10:25:48.019Z,88.62
2022-12-24T10:26:47.998Z,88.51
2022-12-24T10:27:47.971Z,88.10
2022-12-24T10:28:47.951Z,88.00
2022-12-24T10:29:47.948Z,87.96
2022-12-24T10:30:47.964Z,87.96
2022-12-24T10:31:47.910Z,87.65
2022-12-24T10:32:47.915Z,87.55
2022-12-24T10:33:47.879Z,87.65
2022-12-24T10:34:47.896Z,87.14
2022-12-24T10:35:47.888Z,86.94
2022-12-24T10:36:47.884Z,86.53
2022-12-24T10:37:47.823Z,86.59
2022-12-24T10:38:47.834Z,86.38
2022-12-24T10:39:47.836Z,85.88
2022-12-24T10:40:47.799Z,85.67
2022-12-24T10:41:47.781Z,85.97
2022-12-24T10:42:51.314Z,86.04
2022-12-24T10:43:47.751Z,85.88
2022-12-24T10:44:47.765Z,85.57
2022-12-24T10:45:47.814Z,85.12
2022-12-24T10:46:47.754Z,85.32
2022-12-24T10:47:47.710Z,85.42
2022-12-24T10:48:50.760Z,85.53
2022-12-24T10:49:47.684Z,85.32
2022-12-24T10:50:47.689Z,85.42
2022-12-24T10:51:47.670Z,85.32
2022-12-24T10:52:47.632Z,85.22
2022-12-24T10:53:47.631Z,85.63
2022-12-24T10:54:47.624Z,85.02
2022-12-24T10:55:47.617Z,85.22
2022-12-24T10:56:47.604Z,85.42
2022-12-24T10:57:47.594Z,85.63
2022-12-24T10:58:47.571Z,85.06
2022-12-24T10:59:47.548Z,85.73
2022-12-24T11:00:47.565Z,85.12
2022-12-24T11:01:47.733Z,85.42
2022-12-24T11:02:47.705Z,85.22
2022-12-24T11:03:47.517Z,85.02
2022-12-24T11:04:47.474Z,85.32
2022-12-24T11:05:47.496Z,85.53
2022-12-24T11:06:49.276Z,85.53
2022-12-24T11:07:47.458Z,86.04
2022-12-24T11:08:47.453Z,85.63
2022-12-24T11:09:47.415Z,85.53
2022-12-24T11:10:47.424Z,85.63
2022-12-24T11:11:47.431Z,85.73
2022-12-24T11:13:05.754Z,85.83
2022-12-24T11:13:48.358Z,85.22
2022-12-24T11:14:47.374Z,85.12
2022-12-24T11:15:47.375Z,85.02
2022-12-24T11:16:47.344Z,85.42
2022-12-24T11:17:47.314Z,85.73
2022-12-24T11:18:51.190Z,85.63
2022-12-24T11:19:47.297Z,85.42
2022-12-24T11:20:47.274Z,85.02
2022-12-24T11:21:47.319Z,84.98
2022-12-24T11:22:47.266Z,84.47
2022-12-24T11:23:47.256Z,84.88
2022-12-24T11:24:50.203Z,84.67
2022-12-24T11:25:47.229Z,83.85
2022-12-24T11:26:47.214Z,84.01
2022-12-24T11:27:47.237Z,83.10
2022-12-24T11:28:47.203Z,83.10
2022-12-24T11:29:47.168Z,83.20
2022-12-24T11:30:47.212Z,83.00
2022-12-24T11:31:47.175Z,82.45
2022-12-24T11:32:47.156Z,82.55
2022-12-24T11:33:47.177Z,82.65
2022-12-24T11:34:47.135Z,81.53
2022-12-24T11:35:47.091Z,80.57
2022-12-24T11:36:47.088Z,80.23
2022-12-24T11:37:47.051Z,79.07
2022-12-24T11:38:47.037Z,78.46
2022-12-24T11:39:47.077Z,77.81
2022-12-24T11:40:47.025Z,76.62
2022-12-24T11:41:47.028Z,76.72
2022-12-24T11:42:46.996Z,76.96
2022-12-24T11:43:46.988Z,77.47
2022-12-24T11:44:46.996Z,77.40
2022-12-24T11:45:46.959Z,78.12
2022-12-24T11:46:47.065Z,77.75
2022-12-24T11:47:46.973Z,78.16
2022-12-24T11:48:46.917Z,78.97
2022-12-24T11:49:46.917Z,79.32
2022-12-24T11:50:46.894Z,79.52
2022-12-24T11:51:46.884Z,79.72
2022-12-24T11:52:46.890Z,80.68
2022-12-24T11:53:46.828Z,79.96
2022-12-24T11:54:46.838Z,80.37
2022-12-24T11:55:46.823Z,79.55
2022-12-24T11:56:46.820Z,79.66
2022-12-24T11:57:46.813Z,80.16
2022-12-24T11:58:46.777Z,79.45
2022-12-24T11:59:46.774Z,79.80
2022-12-24T12:00:46.751Z,79.90
2022-12-24T12:01:46.799Z,80.61
2022-12-24T12:02:46.779Z,80.51
2022-12-24T12:03:46.738Z,80.82
2022-12-24T12:04:46.709Z,81.02
2022-12-24T12:05:46.683Z,80.61
2022-12-24T12:06:46.679Z,80.30
2022-12-24T12:07:46.679Z,80.71
2022-12-24T12:08:46.650Z,81.02
2022-12-24T12:09:46.639Z,81.32
2022-12-24T12:10:46.623Z,80.51
2022-12-24T12:11:46.608Z,80.71
2022-12-24T12:12:46.602Z,80.30
2022-12-24T12:13:46.584Z,80.30
2022-12-24T12:14:46.602Z,80.61
2022-12-24T12:15:46.602Z,80.00
2022-12-24T12:16:46.614Z,80.20
2022-12-24T12:17:46.540Z,79.90
2022-12-24T12:18:46.522Z,79.49
2022-12-24T12:19:46.558Z,80.10
2022-12-24T12:20:46.481Z,79.96
2022-12-24T12:21:46.481Z,79.86
2022-12-24T12:22:46.465Z,79.66
2022-12-24T12:23:46.457Z,79.45
2022-12-24T12:24:46.421Z,79.75
2022-12-24T12:25:46.438Z,79.75
2022-12-24T12:26:46.426Z,80.07
2022-12-24T12:27:46.406Z,80.07
2022-12-24T12:28:46.379Z,79.96
2022-12-24T12:29:46.392Z,79.25
2022-12-24T12:30:46.355Z,79.45
2022-12-24T12:31:46.406Z,79.14
2022-12-24T12:32:46.380Z,79.04
2022-12-24T12:33:46.326Z,79.04
2022-12-24T12:34:46.314Z,79.86
2022-12-24T12:35:46.304Z,79.25
2022-12-24T12:36:46.294Z,78.74
2022-12-24T12:37:46.282Z,78.43
2022-12-24T12:38:46.296Z,78.33
2022-12-24T12:39:46.256Z,78.64
2022-12-24T12:40:46.233Z,78.74
2022-12-24T12:41:46.228Z,78.64
2022-12-24T12:42:46.215Z,79.18
2022-12-24T12:43:46.228Z,79.69
2022-12-24T12:44:46.195Z,79.39
2022-12-24T12:45:46.146Z,79.80
2022-12-24T12:46:46.187Z,79.18
2022-12-24T12:47:46.146Z,79.39
2022-12-24T12:48:46.154Z,79.59
2022-12-24T12:49:46.120Z,79.69
2022-12-24T12:50:46.076Z,79.80
2022-12-24T12:51:46.089Z,79.69
2022-12-24T12:52:46.084Z,79.80
2022-12-24T12:53:46.085Z,79.49
2022-12-24T12:54:46.055Z,79.90
2022-12-24T12:55:46.028Z,79.55
2022-12-24T12:56:46.030Z,79.35
2022-12-24T12:57:45.987Z,78.84
2022-12-24T12:58:46.014Z,79.00
2022-12-24T12:59:45.996Z,78.50
2022-12-24T13:00:45.977Z,78.50
2022-12-24T13:01:46.161Z,77.44
2022-12-24T13:02:46.110Z,76.39
2022-12-24T13:03:45.912Z,76.69
2022-12-24T13:04:45.920Z,75.98
2022-12-24T13:05:45.910Z,75.67
2022-12-24T13:06:45.912Z,76.32
2022-12-24T13:07:45.894Z,76.35
2022-12-24T13:08:45.847Z,75.57
2022-12-24T13:09:45.879Z,76.32
2022-12-24T13:10:45.864Z,76.59
2022-12-24T13:11:45.819Z,76.28
2022-12-24T13:12:45.822Z,76.93
2022-12-24T13:13:45.794Z,77.14
2022-12-24T13:14:45.780Z,77.17
2022-12-24T13:15:45.904Z,77.58
2022-12-24T13:16:45.867Z,78.09
2022-12-24T13:17:45.752Z,77.98
2022-12-24T13:18:45.720Z,78.19
2022-12-24T13:19:45.721Z,78.39